Terminal Aerodrome Forecast
Issued by NWS Mt. Holly, NJ

Home | Current Version | Previous Version | Text Only | Print | Product List | Glossary On
Versions: 1 2 3 4 5 6 7 8 9 10 11 12 13 14 15 16 17 18 19 20 21
000
FTUS41 KPHI 301740
TAFABE
TAF
KABE 301740Z 3018/0118 06013KT P6SM OVC011
      TEMPO 3018/3022 -DZ BKN009
     FM302200 06011KT 6SM BR OVC009
     FM010900 06008KT 3SM -DZ BR OVC007=

USA.gov is the U.S. government's official web portal to all federal, state and local government web resources and services.